• Join FlightAware (Why Join?)
  • Login
  • US Flag 
10:26PM EDT


 

Airport Tracker/Info


-or-


 

Live Flight TrackerFlight Track Log ✈ N73DB ✈ 27-Sep-2013 ✈ KECG - KCLT

Flight Track Log - Related Links

Times and Time Zones

All times are in EDT time to prevent confusion due to time zone crossing. See the N73DB flight status page for this flight to view local times or setup timezone preferences in your user account.

Time Position Orientation Groundspeed Altitude Reporting Facility
EDT Latitude Longitude Course Direction KTS MPH feet Rate Location/Type
08:20PM 36.2550 -76.1483 73° East 143 165 1,400  Level Washington Center
08:21PM 36.2614 -76.1225 73° East 168 193 1,900 960 Climbing Washington Center
08:22PM 36.3111 -76.1436 341° North 269 310 2,900 1,920 Climbing Washington Center
08:23PM 36.3108 -76.2389 270° West 260 299 5,800 2,220 Climbing Washington Center
08:24PM 36.3100 -76.3575 289° West 281 323 8,400 1,860 Climbing Washington Center
08:25PM 36.2969 -76.4503 260° West 281 323 10,400 1,980 Climbing Washington Center
08:26PM 36.2817 -76.5453 259° West 281 323 12,400 1,920 Climbing Washington Center
08:27PM 36.2683 -76.6353 260° West 276 318 14,400 1,920 Climbing Washington Center
08:28PM 36.2572 -76.7281 262° West 276 318 16,300 1,680 Climbing Washington Center
08:29PM 36.2436 -76.8206 260° West 276 318 17,800 1,380 Climbing Washington Center
08:30PM 36.2300 -76.9181 260° West 281 323 19,100 1,380 Climbing Washington Center
08:31PM 36.2144 -77.0208 259° West 287 330 20,600 1,380 Climbing Washington Center
08:32PM 36.1986 -77.1208 259° West 298 343 21,900 660 Climbing Washington Center
08:33PM 36.1844 -77.2339 261° West 310 357 22,000  Climbing Washington Center
08:34PM 36.1681 -77.3544 260° West 340 391 22,000  Level Washington Center
08:35PM 36.1517 -77.4775 261° West 353 406 22,000  Level Washington Center
08:36PM 36.1331 -77.6006 259° West 366 421 22,000  Level Washington Center
08:37PM 36.1142 -77.7208 259° West 366 421 22,000  Level Washington Center
08:38PM 36.0953 -77.8439 259° West 371 427 22,000  Level Washington Center
08:39PM 36.0761 -77.9692 259° West 371 427 22,000  Level Washington Center
08:40PM 36.0592 -78.0919 260° West 371 427 22,000  Level Washington Center
08:41PM 36.0397 -78.2122 259° West 371 427 22,000  Level Washington Center
08:42PM 36.0203 -78.3347 259° West 371 427 22,000  Level Washington Center
08:43PM 36.0008 -78.4572 259° West 371 427 22,000  Level Washington Center
08:44PM 35.9811 -78.5797 259° West 371 427 22,000 -240 Level Washington Center
08:45PM 35.9672 -78.7153 263° West 371 427 21,600 -720 Descending Washington Center
08:46PM 35.9556 -78.8431 264° West 371 427 20,700 -780 Descending Washington Center
08:47PM 35.9458 -78.9683 265° West 371 427 20,100 -660 Descending Washington Center
08:48PM 35.9336 -79.0961 263° West 371 427 19,500 -660 Descending Washington Center
08:49PM 35.9236 -79.2214 264° West 371 427 18,900 -600 Descending Washington Center
08:51PM 35.8994 -79.4503 263° West 351 404 17,900 -720 Descending Atlanta Center
08:52PM 35.8914 -79.5711 265° West 356 410 17,000 -480 Descending Atlanta Center
08:53PM 35.8789 -79.6897 263° West 361 415 17,000  Level Atlanta Center
08:54PM 35.8686 -79.8133 264° West 361 415 17,000  Level Atlanta Center
08:55PM 35.8578 -79.9239 263° West 361 415 17,000 -300 Level Atlanta Center
08:56PM 35.8472 -80.0447 264° West 366 421 16,500 -1,140 Descending Atlanta Center
08:57PM 35.8367 -80.1736 264° West 319 367 14,800 -1,500 Descending Atlanta Center
08:58PM 35.8269 -80.2611 262° West 335 386 13,600 -1,500 Descending Atlanta Center
08:58PM 35.8256 -80.2789 265° West 315 362 13,300 -600 Descending Atlanta Center
08:59PM 35.8139 -80.3794 262° West 329 379 13,000 -300 Descending Atlanta Center
08:59PM 35.8139 -80.3819 270° West 310 357 13,000 -720 Level Atlanta Center
09:00PM 35.7708 -80.4708 239° Southwest 304 350 12,300 -900 Descending Atlanta Center
09:00PM 35.7586 -80.4817 216° Southwest 323 372 12,000 -1,260 Descending Atlanta Center
09:01PM 35.6994 -80.5328 215° Southwest 311 358 11,000 -600 Descending Atlanta Center
09:02PM 35.6281 -80.5894 213° Southwest 312 359 11,000  Level Atlanta Center
09:02PM 35.6219 -80.5950 216° Southwest 309 356 11,000  Level Atlanta Center
09:03PM 35.5525 -80.6514 213° Southwest 325 374 11,000  Level Atlanta Center
09:04PM 35.4853 -80.7078 214° Southwest 325 374 11,000 -120 Level Atlanta Center
09:04PM 35.4772 -80.7158 219° Southwest 330 380 10,900 -540 Descending Atlanta Center
09:05PM 35.3975 -80.7828 214° Southwest 327 376 10,400 -480 Descending Atlanta Center
09:06PM 35.3342 -80.8336 213° Southwest 331 381 10,000 -420 Descending Atlanta Center
09:06PM 35.3156 -80.8369 188° South 333 383 10,000 -900 Level Atlanta Center
09:07PM 35.2361 -80.8347 179° South 297 342 9,100 -1,560 Descending Atlanta Center
09:08PM 35.1528 -80.8306 178° South 295 339 7,100 -1,980 Descending Atlanta Center
09:09PM 35.0711 -80.8208 174° South 293 337 5,100 -1,560 Descending Atlanta Center
09:10PM 35.0219 -80.8633 215° Southwest 238 274 4,000 -1,080 Descending Atlanta Center
09:11PM 35.0589 -80.9153 311° West 179 206 3,000 -720 Descending Atlanta Center
09:12PM 35.1050 -80.9286 347° North 161 185 2,500 -480 Descending Atlanta Center
09:13PM 35.1447 -80.9322 356° North 131 151 2,000 -660 Descending Atlanta Center
09:14PM 35.1803 -80.9361 355° North 112 129 1,200 -840 Descending Atlanta Center
09:16PM 35.2000 -80.9333 324° Northwest  Level FlightAware Approximate
09:23PM 35.2137 -80.9491 324° Northwest  Level Estimated